Time;durP1;ratioP1;P1;durP2;ratioP2;P2;SDS_P1;SDS_P2;PMS_P1;PMS_P2;Temp;Humidity;BMP_temperature;BMP_pressure;BME280_temperature;BME280_humidity;BME280_pressure;Samples;Min_cycle;Max_cycle;Signal;HPM_P1;HPM_P2
2023/07/06 00:02:05;;;;;;;4.77;2.20;;;;;;;;;;5096549;28;20348;-77
2023/07/06 00:04:30;;;;;;;3.08;1.98;;;;;;;;;;5096610;28;20295;-77
2023/07/06 00:06:55;;;;;;;3.83;2.17;;;;;;;;;;5098331;28;20123;-77
2023/07/06 00:09:21;;;;;;;2.72;1.98;;;;;;;;;;5095904;28;20717;-77
2023/07/06 00:15:05;;;;;;;3.55;2.33;;;;;;;;;;5657216;22;20038;-76
2023/07/06 00:17:31;;;;;;;3.15;1.77;;;;;;;;;;5019213;28;20091;-78
2023/07/06 00:19:56;;;;;;;3.60;1.80;;;;;;;;;;5002943;28;20017;-78
2023/07/06 00:22:21;;;;;;;7.13;2.17;;;;;;;;;;5020484;28;20329;-78
2023/07/06 00:24:48;;;;;;;4.57;2.25;;;;;;;;;;5020521;28;20263;-78
2023/07/06 00:27:16;;;;;;;4.72;2.03;;;;;;;;;;5018861;28;20439;-78
2023/07/06 00:29:56;;;;;;;6.15;2.30;;;;;;;;;;5017861;28;20051;-78
2023/07/06 00:32:31;;;;;;;4.45;2.30;;;;;;;;;;5018141;28;20080;-77
2023/07/06 00:34:57;;;;;;;4.63;2.13;;;;;;;;;;5017759;28;20029;-77
2023/07/06 00:37:23;;;;;;;5.63;2.60;;;;;;;;;;5018327;28;20565;-77
2023/07/06 00:39:49;;;;;;;4.10;2.10;;;;;;;;;;5018020;28;20037;-77
2023/07/06 00:42:16;;;;;;;3.25;2.20;;;;;;;;;;5017680;28;20034;-77
2023/07/06 00:44:58;;;;;;;4.70;1.80;;;;;;;;;;5017609;28;20034;-77
2023/07/06 00:47:46;;;;;;;3.63;2.10;;;;;;;;;;5017881;28;20037;-77
2023/07/06 00:50:16;;;;;;;5.18;2.20;;;;;;;;;;5017851;28;20431;-77
2023/07/06 00:52:58;;;;;;;4.00;2.03;;;;;;;;;;4999294;28;20087;-77
2023/07/06 00:55:27;;;;;;;4.60;2.22;;;;;;;;;;5016965;28;20033;-77
2023/07/06 00:57:55;;;;;;;5.63;2.00;;;;;;;;;;4999528;28;20447;-77
2023/07/06 01:00:21;;;;;;;4.68;2.22;;;;;;;;;;5017121;28;20492;-78
2023/07/06 01:02:51;;;;;;;3.72;2.00;;;;;;;;;;5017238;28;20076;-77
2023/07/06 01:05:18;;;;;;;3.58;2.00;;;;;;;;;;5018816;28;20026;-78
2023/07/06 01:07:45;;;;;;;6.28;2.13;;;;;;;;;;5019548;28;20029;-78
2023/07/06 01:10:10;;;;;;;2.80;2.00;;;;;;;;;;5002309;28;20057;-79
2023/07/06 01:12:37;;;;;;;3.30;1.88;;;;;;;;;;5018305;28;20131;-79
2023/07/06 01:15:03;;;;;;;5.40;2.40;;;;;;;;;;5018994;28;20053;-78
2023/07/06 01:18:06;;;;;;;5.75;2.20;;;;;;;;;;5019773;28;20060;-79
2023/07/06 01:20:44;;;;;;;4.65;1.90;;;;;;;;;;5006680;28;20076;-78
2023/07/06 01:23:23;;;;;;;4.55;2.22;;;;;;;;;;5019083;28;20030;-78
2023/07/06 01:26:13;;;;;;;3.88;1.98;;;;;;;;;;5018621;28;20080;-78
2023/07/06 01:28:53;;;;;;;3.55;2.00;;;;;;;;;;5018228;28;20038;-79
2023/07/06 01:31:27;;;;;;;4.15;2.20;;;;;;;;;;5018056;28;20044;-77
2023/07/06 01:34:20;;;;;;;4.38;1.98;;;;;;;;;;5017578;28;20061;-78
2023/07/06 01:36:57;;;;;;;3.85;1.95;;;;;;;;;;5000076;28;20112;-78
2023/07/06 01:39:26;;;;;;;4.50;2.13;;;;;;;;;;5018726;28;20077;-78
2023/07/06 01:42:13;;;;;;;4.05;2.15;;;;;;;;;;5001278;28;20033;-78
2023/07/06 01:44:46;;;;;;;3.58;2.10;;;;;;;;;;5018760;28;20034;-78
2023/07/06 01:47:13;;;;;;;3.97;2.38;;;;;;;;;;5019054;28;20030;-78
2023/07/06 01:49:39;;;;;;;9.02;2.25;;;;;;;;;;5018752;28;20018;-78
2023/07/06 01:52:28;;;;;;;6.25;2.20;;;;;;;;;;5017042;28;20030;-77
2023/07/06 01:55:20;;;;;;;3.30;1.90;;;;;;;;;;5000160;28;20029;-79
2023/07/06 01:58:09;;;;;;;3.97;2.17;;;;;;;;;;5020281;28;20030;-80
2023/07/06 02:00:38;;;;;;;6.65;2.20;;;;;;;;;;5019441;28;20476;-79
2023/07/06 02:03:06;;;;;;;12.90;2.20;;;;;;;;;;5019171;28;20036;-79
2023/07/06 02:05:32;;;;;;;10.30;2.58;;;;;;;;;;5019517;28;20112;-79
2023/07/06 02:07:58;;;;;;;4.93;1.90;;;;;;;;;;5019517;28;20034;-78
2023/07/06 02:10:23;;;;;;;4.03;2.22;;;;;;;;;;5019601;28;20376;-79
2023/07/06 02:12:49;;;;;;;5.80;1.80;;;;;;;;;;5018538;28;20026;-79
2023/07/06 02:15:18;;;;;;;7.18;2.05;;;;;;;;;;5019031;28;20479;-78
2023/07/06 02:17:46;;;;;;;5.03;2.15;;;;;;;;;;5018221;28;20025;-78
2023/07/06 02:20:11;;;;;;;5.18;2.45;;;;;;;;;;5018745;28;20036;-78
2023/07/06 02:22:39;;;;;;;2.60;1.80;;;;;;;;;;5000062;28;20109;-78
2023/07/06 02:25:05;;;;;;;3.47;2.30;;;;;;;;;;5017974;28;20036;-78
2023/07/06 02:27:32;;;;;;;4.55;2.40;;;;;;;;;;5018317;28;20627;-79
2023/07/06 02:29:57;;;;;;;4.20;2.03;;;;;;;;;;5018530;28;20029;-78
2023/07/06 02:32:23;;;;;;;5.90;2.13;;;;;;;;;;5018676;28;20108;-78
2023/07/06 02:34:48;;;;;;;4.63;2.00;;;;;;;;;;5018095;28;20032;-78
2023/07/06 02:37:13;;;;;;;3.58;2.20;;;;;;;;;;5017709;28;20252;-79
2023/07/06 02:39:38;;;;;;;3.60;2.20;;;;;;;;;;5018168;28;20054;-79
2023/07/06 02:42:04;;;;;;;2.73;1.97;;;;;;;;;;5018662;28;20749;-78
2023/07/06 02:44:29;;;;;;;4.57;2.35;;;;;;;;;;5000277;28;20823;-79
2023/07/06 02:46:55;;;;;;;3.72;2.22;;;;;;;;;;5018324;28;20026;-78
2023/07/06 02:49:20;;;;;;;5.43;2.40;;;;;;;;;;5018855;28;20080;-79
2023/07/06 02:51:46;;;;;;;3.90;2.17;;;;;;;;;;5018318;28;20247;-78
2023/07/06 02:54:15;;;;;;;7.00;2.20;;;;;;;;;;5012271;28;20072;-77
2023/07/06 02:56:41;;;;;;;4.75;2.28;;;;;;;;;;5031742;28;20022;-78
2023/07/06 02:59:07;;;;;;;5.18;2.20;;;;;;;;;;5031580;28;20037;-79
2023/07/06 03:01:33;;;;;;;5.40;2.40;;;;;;;;;;5014331;28;20034;-79
2023/07/06 03:03:59;;;;;;;6.68;2.30;;;;;;;;;;5012044;28;20258;-79
2023/07/06 03:06:24;;;;;;;5.73;2.23;;;;;;;;;;5027681;28;20033;-79
2023/07/06 03:08:49;;;;;;;5.40;2.50;;;;;;;;;;5028312;28;20346;-77
2023/07/06 03:11:17;;;;;;;3.30;1.90;;;;;;;;;;5027753;28;20310;-77
2023/07/06 03:13:42;;;;;;;4.28;2.20;;;;;;;;;;5028041;28;20271;-78
2023/07/06 03:16:08;;;;;;;4.60;2.20;;;;;;;;;;5029660;28;20037;-78
2023/07/06 03:18:33;;;;;;;3.42;2.10;;;;;;;;;;5019649;28;20256;-77
2023/07/06 03:21:00;;;;;;;4.70;2.50;;;;;;;;;;5016072;28;20396;-77
2023/07/06 03:23:27;;;;;;;4.65;2.50;;;;;;;;;;5016694;28;20056;-78
2023/07/06 03:25:53;;;;;;;6.90;2.40;;;;;;;;;;5017033;28;20447;-79
2023/07/06 03:28:20;;;;;;;3.42;2.10;;;;;;;;;;5018112;28;20022;-79
2023/07/06 03:30:52;;;;;;;4.65;2.10;;;;;;;;;;5017722;28;20026;-79
2023/07/06 03:33:19;;;;;;;4.55;2.30;;;;;;;;;;5017517;28;20485;-79
2023/07/06 03:35:44;;;;;;;3.58;2.15;;;;;;;;;;5017244;28;20026;-79
2023/07/06 03:38:09;;;;;;;4.57;2.30;;;;;;;;;;5018242;28;20040;-80
2023/07/06 03:40:35;;;;;;;5.23;2.07;;;;;;;;;;5017940;28;20279;-78
2023/07/06 03:43:01;;;;;;;4.30;2.70;;;;;;;;;;5018302;28;20290;-79
2023/07/06 03:45:30;;;;;;;3.63;2.15;;;;;;;;;;4999778;28;20255;-78
2023/07/06 03:47:55;;;;;;;6.15;2.25;;;;;;;;;;5018035;28;20022;-79
2023/07/06 03:50:20;;;;;;;5.37;2.40;;;;;;;;;;5017817;28;20522;-79
2023/07/06 03:52:46;;;;;;;6.85;2.20;;;;;;;;;;5017389;28;20618;-79
2023/07/06 03:55:15;;;;;;;5.07;2.42;;;;;;;;;;5017119;28;20064;-79
2023/07/06 03:57:40;;;;;;;5.50;2.20;;;;;;;;;;5017149;28;20427;-79
2023/07/06 04:00:22;;;;;;;5.93;2.47;;;;;;;;;;5016736;28;20025;-79
2023/07/06 04:02:55;;;;;;;7.50;2.28;;;;;;;;;;4999191;28;20384;-79
2023/07/06 04:05:24;;;;;;;4.75;2.30;;;;;;;;;;5016652;28;20030;-79
2023/07/06 04:07:52;;;;;;;5.32;2.47;;;;;;;;;;5016913;28;20121;-79
2023/07/06 04:10:19;;;;;;;5.88;2.20;;;;;;;;;;5016736;28;20014;-79
2023/07/06 04:12:44;;;;;;;6.22;2.40;;;;;;;;;;4999525;28;20029;-79
2023/07/06 04:15:10;;;;;;;7.23;2.40;;;;;;;;;;5017592;28;20034;-79
2023/07/06 04:17:36;;;;;;;5.20;2.40;;;;;;;;;;5017316;28;20275;-79
2023/07/06 04:20:13;;;;;;;4.78;2.40;;;;;;;;;;5017274;28;20041;-78
2023/07/06 04:22:38;;;;;;;7.10;2.50;;;;;;;;;;4999314;28;20373;-79
2023/07/06 04:25:05;;;;;;;6.50;2.40;;;;;;;;;;5016006;28;20045;-79
2023/07/06 04:27:30;;;;;;;6.10;2.33;;;;;;;;;;5016165;28;20396;-79
2023/07/06 04:29:56;;;;;;;7.20;2.93;;;;;;;;;;5015406;28;20033;-79
2023/07/06 04:32:23;;;;;;;3.58;2.50;;;;;;;;;;5016293;28;20271;-78
2023/07/06 04:34:49;;;;;;;6.95;2.70;;;;;;;;;;5016397;28;20105;-79
2023/07/06 04:37:14;;;;;;;4.97;2.38;;;;;;;;;;5017475;28;20053;-79
2023/07/06 04:39:39;;;;;;;7.57;2.40;;;;;;;;;;5016890;28;20393;-79
2023/07/06 04:42:05;;;;;;;6.60;2.25;;;;;;;;;;5017011;28;20626;-79
2023/07/06 04:44:31;;;;;;;8.50;2.20;;;;;;;;;;4999236;28;20510;-79
2023/07/06 04:46:58;;;;;;;4.78;2.58;;;;;;;;;;5015735;28;20113;-80
2023/07/06 04:49:24;;;;;;;7.32;2.75;;;;;;;;;;5017846;28;20022;-79
2023/07/06 04:51:49;;;;;;;4.22;2.50;;;;;;;;;;5019638;28;20029;-79
2023/07/06 04:54:14;;;;;;;3.90;2.30;;;;;;;;;;5019349;28;20033;-79
2023/07/06 04:56:39;;;;;;;5.43;2.63;;;;;;;;;;5019844;28;20263;-79
2023/07/06 04:59:05;;;;;;;5.37;2.73;;;;;;;;;;5001822;28;20261;-79
2023/07/06 05:01:30;;;;;;;4.83;2.30;;;;;;;;;;5000616;28;20342;-78
2023/07/06 05:03:55;;;;;;;6.40;2.50;;;;;;;;;;5018861;28;20262;-78
2023/07/06 05:06:20;;;;;;;4.57;2.47;;;;;;;;;;5001405;28;20267;-78
2023/07/06 05:08:47;;;;;;;7.03;2.53;;;;;;;;;;5019932;28;20259;-79
2023/07/06 05:11:13;;;;;;;5.25;2.50;;;;;;;;;;5021164;28;20056;-79
2023/07/06 05:13:38;;;;;;;4.45;2.40;;;;;;;;;;5002122;28;20428;-78
2023/07/06 05:16:04;;;;;;;4.33;2.37;;;;;;;;;;5019233;28;20028;-79
2023/07/06 05:18:29;;;;;;;5.03;2.47;;;;;;;;;;5001905;28;20255;-79
2023/07/06 05:20:56;;;;;;;6.40;2.50;;;;;;;;;;5019209;28;20022;-79
2023/07/06 05:23:27;;;;;;;4.95;2.42;;;;;;;;;;5019356;28;20060;-80
2023/07/06 05:25:53;;;;;;;3.75;2.30;;;;;;;;;;5019667;28;20468;-80
2023/07/06 05:28:20;;;;;;;7.53;2.58;;;;;;;;;;5001863;28;20025;-79
2023/07/06 05:30:46;;;;;;;5.63;2.40;;;;;;;;;;5002569;28;20043;-80
2023/07/06 05:33:12;;;;;;;5.95;2.20;;;;;;;;;;5019062;28;20503;-81
2023/07/06 05:35:38;;;;;;;9.60;2.50;;;;;;;;;;5000319;28;20033;-80
2023/07/06 05:38:03;;;;;;;9.25;2.45;;;;;;;;;;5000383;28;20024;-80
2023/07/06 05:40:28;;;;;;;10.60;2.80;;;;;;;;;;5000426;28;20030;-80
2023/07/06 05:42:54;;;;;;;5.90;2.50;;;;;;;;;;5018308;28;20036;-80
2023/07/06 05:45:20;;;;;;;5.65;2.50;;;;;;;;;;5018379;28;20268;-78
2023/07/06 05:47:46;;;;;;;4.35;2.50;;;;;;;;;;5017918;28;20037;-80
2023/07/06 05:50:12;;;;;;;6.32;2.22;;;;;;;;;;5018582;28;20108;-79
2023/07/06 05:52:37;;;;;;;3.45;2.00;;;;;;;;;;5000732;28;20050;-79
2023/07/06 05:55:03;;;;;;;6.05;2.38;;;;;;;;;;5018009;28;20042;-79
2023/07/06 05:57:29;;;;;;;4.88;2.40;;;;;;;;;;5000990;28;20036;-80
2023/07/06 05:59:54;;;;;;;5.43;2.30;;;;;;;;;;5017559;28;20022;-80
2023/07/06 06:02:20;;;;;;;5.03;2.30;;;;;;;;;;5018354;28;20325;-80
2023/07/06 06:04:47;;;;;;;7.57;2.30;;;;;;;;;;5018429;28;20018;-78
2023/07/06 06:07:13;;;;;;;7.78;2.33;;;;;;;;;;5018550;28;20476;-80
2023/07/06 06:09:38;;;;;;;4.32;2.30;;;;;;;;;;5017814;28;20037;-79
2023/07/06 06:12:04;;;;;;;9.68;2.30;;;;;;;;;;5017718;28;20404;-80
2023/07/06 06:14:30;;;;;;;4.55;1.90;;;;;;;;;;5000292;28;20468;-79
2023/07/06 06:16:56;;;;;;;2.38;1.98;;;;;;;;;;5017636;28;20045;-80
2023/07/06 06:19:22;;;;;;;3.70;2.10;;;;;;;;;;5018758;28;20396;-80
2023/07/06 06:21:49;;;;;;;4.75;1.98;;;;;;;;;;5000634;28;20026;-80
2023/07/06 06:24:15;;;;;;;4.72;1.95;;;;;;;;;;5017487;28;20484;-80
2023/07/06 06:26:42;;;;;;;3.58;1.80;;;;;;;;;;5000142;28;20076;-79
2023/07/06 06:29:09;;;;;;;4.78;1.88;;;;;;;;;;5000334;28;20022;-79
2023/07/06 06:31:35;;;;;;;9.00;2.00;;;;;;;;;;5017643;28;20036;-80
2023/07/06 06:34:01;;;;;;;4.15;1.88;;;;;;;;;;5017092;28;20096;-80
2023/07/06 06:36:26;;;;;;;5.40;1.70;;;;;;;;;;4999241;28;20480;-80
2023/07/06 06:38:51;;;;;;;7.30;2.00;;;;;;;;;;5017654;28;20799;-80
2023/07/06 06:41:16;;;;;;;5.40;2.00;;;;;;;;;;5017459;28;20693;-81
2023/07/06 06:43:44;;;;;;;8.27;2.00;;;;;;;;;;5017220;28;20252;-79
2023/07/06 06:46:11;;;;;;;9.38;2.47;;;;;;;;;;5017539;28;20342;-81
2023/07/06 06:48:37;;;;;;;5.75;2.15;;;;;;;;;;5017027;28;20037;-80
2023/07/06 06:51:08;;;;;;;4.28;1.95;;;;;;;;;;5016632;28;20384;-81
2023/07/06 06:53:33;;;;;;;6.75;2.20;;;;;;;;;;5016913;28;20030;-79
2023/07/06 06:55:58;;;;;;;4.47;2.20;;;;;;;;;;5016367;28;20457;-79
2023/07/06 06:58:24;;;;;;;6.07;2.13;;;;;;;;;;5017510;28;20504;-79
2023/07/06 07:00:57;;;;;;;6.50;2.20;;;;;;;;;;4998794;28;20298;-79
2023/07/06 07:03:22;;;;;;;4.65;2.08;;;;;;;;;;5017436;28;20459;-79
2023/07/06 07:05:47;;;;;;;3.88;2.05;;;;;;;;;;5016445;28;20079;-80
2023/07/06 07:08:13;;;;;;;6.53;2.07;;;;;;;;;;5016888;28;20060;-81
2023/07/06 07:10:38;;;;;;;2.95;1.60;;;;;;;;;;5016056;28;20263;-81
2023/07/06 07:13:03;;;;;;;3.45;1.67;;;;;;;;;;5016383;28;20022;-81
2023/07/06 07:15:28;;;;;;;3.30;1.70;;;;;;;;;;5016407;28;20033;-81
2023/07/06 07:17:55;;;;;;;3.50;1.52;;;;;;;;;;4998824;28;20271;-81
2023/07/06 07:20:20;;;;;;;4.03;1.70;;;;;;;;;;5016120;28;20370;-81
2023/07/06 07:22:46;;;;;;;3.85;1.40;;;;;;;;;;5015673;28;20033;-80
2023/07/06 07:25:11;;;;;;;3.93;1.40;;;;;;;;;;5016490;28;20038;-81
2023/07/06 07:27:36;;;;;;;2.23;1.60;;;;;;;;;;5015882;28;20286;-79
2023/07/06 07:30:06;;;;;;;3.92;1.52;;;;;;;;;;5015801;28;20263;-79
2023/07/06 07:32:32;;;;;;;2.10;1.42;;;;;;;;;;5015655;28;20084;-81
2023/07/06 07:34:58;;;;;;;6.25;1.52;;;;;;;;;;5016216;28;20030;-80
2023/07/06 07:37:26;;;;;;;3.03;2.03;;;;;;;;;;5016323;28;20172;-80
2023/07/06 07:39:52;;;;;;;4.03;1.30;;;;;;;;;;5015890;28;20037;-81
2023/07/06 07:42:18;;;;;;;6.53;1.70;;;;;;;;;;5016373;28;20038;-80
2023/07/06 07:44:47;;;;;;;4.15;1.30;;;;;;;;;;5016353;28;20271;-80
2023/07/06 07:47:18;;;;;;;6.63;1.50;;;;;;;;;;5016325;28;20029;-81
2023/07/06 07:49:44;;;;;;;6.57;1.55;;;;;;;;;;4998545;28;20026;-81
2023/07/06 07:52:09;;;;;;;3.75;1.40;;;;;;;;;;4999027;28;20064;-81
2023/07/06 07:54:35;;;;;;;2.10;1.40;;;;;;;;;;5016465;28;20029;-80
2023/07/06 07:57:00;;;;;;;3.20;1.33;;;;;;;;;;5015902;28;20469;-81
2023/07/06 07:59:25;;;;;;;4.50;1.30;;;;;;;;;;5015670;28;20337;-81
2023/07/06 08:01:50;;;;;;;3.07;1.17;;;;;;;;;;5015826;28;20263;-80
2023/07/06 08:04:16;;;;;;;2.25;1.20;;;;;;;;;;4998268;28;20329;-79
2023/07/06 08:06:42;;;;;;;4.25;1.30;;;;;;;;;;5015885;28;20030;-81
2023/07/06 08:09:08;;;;;;;3.53;1.35;;;;;;;;;;4998210;28;20041;-80
2023/07/06 08:11:36;;;;;;;3.72;1.40;;;;;;;;;;5016059;28;20492;-80
2023/07/06 08:14:04;;;;;;;2.70;1.30;;;;;;;;;;5015868;28;20381;-80
2023/07/06 08:16:30;;;;;;;3.25;1.40;;;;;;;;;;5015545;28;20030;-80
2023/07/06 08:18:56;;;;;;;3.22;1.20;;;;;;;;;;5015543;28;20030;-81
2023/07/06 08:21:21;;;;;;;4.60;1.40;;;;;;;;;;4997895;28;20052;-80
2023/07/06 08:23:49;;;;;;;2.43;1.30;;;;;;;;;;5018855;28;20334;-80
2023/07/06 08:26:15;;;;;;;3.90;1.38;;;;;;;;;;5018456;28;20297;-81
2023/07/06 08:28:40;;;;;;;5.45;1.20;;;;;;;;;;5019081;28;20022;-80
2023/07/06 08:31:19;;;;;;;2.20;1.50;;;;;;;;;;5018689;28;20083;-80
2023/07/06 08:33:46;;;;;;;2.47;1.40;;;;;;;;;;5018918;28;20091;-80
2023/07/06 08:36:12;;;;;;;2.10;1.25;;;;;;;;;;5018601;28;20037;-80
2023/07/06 08:38:38;;;;;;;2.33;1.38;;;;;;;;;;5019167;28;20033;-81
2023/07/06 08:41:12;;;;;;;2.05;1.00;;;;;;;;;;5018581;28;20030;-80
2023/07/06 08:43:39;;;;;;;1.58;1.10;;;;;;;;;;5019045;28;20097;-80
2023/07/06 08:46:05;;;;;;;2.13;1.20;;;;;;;;;;5018657;28;20026;-83
2023/07/06 08:48:34;;;;;;;3.45;1.42;;;;;;;;;;5004410;28;20018;-84
2023/07/06 08:51:15;;;;;;;3.25;1.42;;;;;;;;;;5019967;28;20105;-81
2023/07/06 08:53:49;;;;;;;1.95;1.30;;;;;;;;;;5019007;28;20702;-80
2023/07/06 08:56:18;;;;;;;3.47;1.42;;;;;;;;;;5003049;28;20046;-81
2023/07/06 08:58:44;;;;;;;2.90;1.50;;;;;;;;;;5020044;28;20049;-80
2023/07/06 09:01:12;;;;;;;2.75;1.50;;;;;;;;;;5019071;28;20061;-82
2023/07/06 09:03:44;;;;;;;3.38;1.20;;;;;;;;;;5019302;28;20021;-79
2023/07/06 09:06:13;;;;;;;7.30;1.83;;;;;;;;;;5020218;28;20025;-84
2023/07/06 09:08:41;;;;;;;89.03;11.70;;;;;;;;;;5021612;28;20022;-79
2023/07/06 09:11:07;;;;;;;15.07;3.83;;;;;;;;;;5021807;28;20044;-79
2023/07/06 09:13:43;;;;;;;9.98;2.97;;;;;;;;;;5018479;28;20013;-78
2023/07/06 09:16:10;;;;;;;4.07;1.67;;;;;;;;;;5020640;28;20527;-78
2023/07/06 09:18:36;;;;;;;3.03;1.50;;;;;;;;;;5018310;28;20036;-78
2023/07/06 09:21:02;;;;;;;3.10;1.38;;;;;;;;;;5018861;28;20207;-78
2023/07/06 09:23:27;;;;;;;6.60;1.88;;;;;;;;;;5002416;28;20030;-78
2023/07/06 09:25:54;;;;;;;4.43;1.60;;;;;;;;;;5020115;28;20026;-79
2023/07/06 09:28:29;;;;;;;4.15;1.67;;;;;;;;;;5002727;28;20026;-78
2023/07/06 09:31:32;;;;;;;9.30;2.88;;;;;;;;;;5020274;28;20037;-77
2023/07/06 09:33:58;;;;;;;4.00;1.50;;;;;;;;;;4939506;29;20074;-78
2023/07/06 09:36:25;;;;;;;4.63;1.45;;;;;;;;;;4955957;29;20039;-79
2023/07/06 09:38:52;;;;;;;5.55;1.38;;;;;;;;;;4971273;28;20511;-78
2023/07/06 09:41:26;;;;;;;3.75;1.55;;;;;;;;;;5019514;28;20558;-78
2023/07/06 09:43:57;;;;;;;2.85;1.67;;;;;;;;;;5001729;28;20029;-79
2023/07/06 09:46:26;;;;;;;3.78;1.42;;;;;;;;;;5002165;28;20036;-78
2023/07/06 09:48:52;;;;;;;3.45;1.30;;;;;;;;;;5001893;28;20022;-78
2023/07/06 09:51:36;;;;;;;5.65;1.50;;;;;;;;;;5018555;28;20022;-78
2023/07/06 09:54:11;;;;;;;3.83;1.40;;;;;;;;;;5019590;28;20527;-78
2023/07/06 09:56:36;;;;;;;2.15;1.42;;;;;;;;;;5020234;28;20037;-78
2023/07/06 09:59:03;;;;;;;2.33;1.40;;;;;;;;;;5021844;28;20026;-79
2023/07/06 10:01:40;;;;;;;1.85;1.35;;;;;;;;;;5027282;28;20056;-78
2023/07/06 10:04:38;;;;;;;5.75;1.80;;;;;;;;;;5024574;28;20389;-78
2023/07/06 10:07:27;;;;;;;3.35;1.40;;;;;;;;;;5023748;28;20108;-78
2023/07/06 10:10:02;;;;;;;5.88;1.38;;;;;;;;;;5020969;28;20022;-78
2023/07/06 10:12:38;;;;;;;2.35;1.27;;;;;;;;;;5004489;28;20022;-78
2023/07/06 10:15:19;;;;;;;2.33;1.30;;;;;;;;;;5021073;28;20022;-76
2023/07/06 10:17:55;;;;;;;4.30;1.30;;;;;;;;;;5022506;28;20117;-78
2023/07/06 10:20:33;;;;;;;2.47;1.30;;;;;;;;;;5006180;28;20053;-78
2023/07/06 10:23:32;;;;;;;2.53;1.40;;;;;;;;;;5023629;28;20076;-77
2023/07/06 10:26:19;;;;;;;5.03;1.35;;;;;;;;;;5006862;28;20049;-78
2023/07/06 10:29:01;;;;;;;2.90;1.35;;;;;;;;;;5024376;28;20060;-77
2023/07/06 10:31:34;;;;;;;3.50;1.55;;;;;;;;;;5009894;28;20025;-78
2023/07/06 10:34:13;;;;;;;4.00;1.45;;;;;;;;;;5025068;28;20030;-78
2023/07/06 10:36:39;;;;;;;4.22;1.20;;;;;;;;;;5008328;28;20045;-79
2023/07/06 10:39:23;;;;;;;2.40;1.20;;;;;;;;;;5027915;28;20477;-79
2023/07/06 10:42:10;;;;;;;2.72;1.45;;;;;;;;;;5006492;28;20026;-78
2023/07/06 10:44:44;;;;;;;4.30;1.40;;;;;;;;;;5004862;28;20496;-79
2023/07/06 10:47:28;;;;;;;4.45;1.63;;;;;;;;;;5005490;28;20502;-79
2023/07/06 10:50:06;;;;;;;2.72;1.30;;;;;;;;;;5025218;28;20026;-79
2023/07/06 10:52:43;;;;;;;3.60;1.20;;;;;;;;;;5024400;28;20392;-78
2023/07/06 10:55:18;;;;;;;4.15;1.70;;;;;;;;;;5009737;28;20018;-78
2023/07/06 10:57:49;;;;;;;3.35;1.20;;;;;;;;;;5024188;28;20030;-78
2023/07/06 11:00:17;;;;;;;4.28;1.35;;;;;;;;;;5023394;28;20041;-78
2023/07/06 11:02:44;;;;;;;2.33;1.33;;;;;;;;;;5025322;28;20452;-78
2023/07/06 11:05:15;;;;;;;2.83;1.70;;;;;;;;;;5008290;28;20045;-78
2023/07/06 11:07:50;;;;;;;5.65;1.23;;;;;;;;;;5025569;28;20025;-79
2023/07/06 11:10:44;;;;;;;2.67;1.38;;;;;;;;;;5010090;28;20385;-78
2023/07/06 11:13:09;;;;;;;3.22;1.60;;;;;;;;;;5025635;28;20033;-78
2023/07/06 11:15:56;;;;;;;1.97;1.43;;;;;;;;;;5005428;28;20032;-78
2023/07/06 11:18:21;;;;;;;2.80;1.30;;;;;;;;;;5021579;28;20243;-78
2023/07/06 11:20:51;;;;;;;7.07;1.80;;;;;;;;;;5019900;28;20036;-79
2023/07/06 11:23:19;;;;;;;3.15;1.23;;;;;;;;;;5019482;28;20251;-78
2023/07/06 11:25:50;;;;;;;2.17;1.40;;;;;;;;;;5018758;28;20064;-79
2023/07/06 11:28:22;;;;;;;3.47;1.75;;;;;;;;;;5018620;28;20018;-77
2023/07/06 11:30:59;;;;;;;5.50;1.67;;;;;;;;;;5016381;28;20017;-78
2023/07/06 11:33:50;;;;;;;3.80;1.75;;;;;;;;;;4998359;28;20057;-78
2023/07/06 11:36:27;;;;;;;4.15;1.27;;;;;;;;;;5015485;28;20057;-78
2023/07/06 11:39:08;;;;;;;3.67;1.48;;;;;;;;;;5017295;28;20105;-77
2023/07/06 11:41:42;;;;;;;3.40;1.20;;;;;;;;;;5015039;28;20468;-78
2023/07/06 11:44:16;;;;;;;;;;;;;;;;;;5014277;28;20030;-78
2023/07/06 11:47:02;;;;;;;5.05;1.35;;;;;;;;;;5015740;28;19975;-78
2023/07/06 11:49:47;;;;;;;2.88;1.10;;;;;;;;;;5016118;28;20029;-81
2023/07/06 11:52:20;;;;;;;2.85;1.40;;;;;;;;;;5016415;28;20030;-79
2023/07/06 11:54:51;;;;;;;5.38;1.50;;;;;;;;;;5016127;28;20493;-79
2023/07/06 11:57:48;;;;;;;2.17;1.20;;;;;;;;;;4999880;28;20079;-79
2023/07/06 12:03:10;;;;;;;6.72;1.50;;;;;;;;;;5020788;28;20041;-79
2023/07/06 12:05:38;;;;;;;7.28;1.40;;;;;;;;;;5020381;28;20029;-79
2023/07/06 12:08:16;;;;;;;2.85;1.40;;;;;;;;;;5019998;28;20083;-80
2023/07/06 12:10:50;;;;;;;4.05;1.35;;;;;;;;;;5019046;28;20029;-79
2023/07/06 12:13:28;;;;;;;4.28;1.35;;;;;;;;;;5019852;28;20534;-79
2023/07/06 12:15:56;;;;;;;2.95;1.20;;;;;;;;;;5001133;28;20076;-80
2023/07/06 12:18:23;;;;;;;3.47;1.40;;;;;;;;;;5017864;28;20079;-78
2023/07/06 12:20:53;;;;;;;4.53;1.40;;;;;;;;;;5017373;28;20389;-77
2023/07/06 12:23:18;;;;;;;2.97;1.35;;;;;;;;;;5018631;28;20034;-78
2023/07/06 12:25:43;;;;;;;2.10;1.30;;;;;;;;;;5017918;28;20038;-78
2023/07/06 12:28:12;;;;;;;2.67;1.30;;;;;;;;;;5019034;28;20270;-79
2023/07/06 12:30:39;;;;;;;2.17;1.20;;;;;;;;;;5019155;28;20072;-79
2023/07/06 12:33:05;;;;;;;2.83;1.33;;;;;;;;;;5019118;28;20045;-77
2023/07/06 12:35:33;;;;;;;1.95;1.00;;;;;;;;;;5019257;28;20038;-79
2023/07/06 12:37:59;;;;;;;2.25;1.10;;;;;;;;;;5001673;28;20025;-80
2023/07/06 12:40:27;;;;;;;2.42;1.27;;;;;;;;;;5018852;28;20026;-78
2023/07/06 12:42:53;;;;;;;2.88;1.20;;;;;;;;;;5019059;28;20026;-79
2023/07/06 12:45:21;;;;;;;1.25;1.05;;;;;;;;;;5018835;28;20026;-78
2023/07/06 12:47:55;;;;;;;2.17;1.20;;;;;;;;;;5017834;28;20063;-79
2023/07/06 12:50:26;;;;;;;1.90;1.23;;;;;;;;;;5018961;28;20068;-78
2023/07/06 12:53:11;;;;;;;2.88;1.02;;;;;;;;;;5018838;28;20026;-79
2023/07/06 12:55:41;;;;;;;6.10;1.30;;;;;;;;;;5018589;28;20029;-79
2023/07/06 12:58:27;;;;;;;2.67;1.30;;;;;;;;;;5000198;28;20030;-79
2023/07/06 13:01:00;;;;;;;2.80;1.30;;;;;;;;;;5016902;28;20494;-78
2023/07/06 13:03:25;;;;;;;4.05;1.40;;;;;;;;;;5018156;28;20026;-78
2023/07/06 13:05:53;;;;;;;1.97;1.30;;;;;;;;;;5018433;28;20041;-78
2023/07/06 13:08:20;;;;;;;4.05;1.30;;;;;;;;;;5018101;28;20282;-78
2023/07/06 13:10:59;;;;;;;2.90;1.40;;;;;;;;;;5018066;28;20068;-79
2023/07/06 13:13:24;;;;;;;3.72;1.50;;;;;;;;;;5018175;28;20061;-79
2023/07/06 13:15:56;;;;;;;2.47;1.33;;;;;;;;;;5000738;28;20029;-78
2023/07/06 13:18:21;;;;;;;1.95;1.20;;;;;;;;;;5018339;28;20026;-79
2023/07/06 13:20:50;;;;;;;2.67;1.30;;;;;;;;;;5018440;28;20503;-79
2023/07/06 13:23:18;;;;;;;2.13;1.30;;;;;;;;;;5018509;28;20247;-79
2023/07/06 13:25:45;;;;;;;2.17;1.10;;;;;;;;;;5017608;28;20537;-78
2023/07/06 13:28:14;;;;;;;2.45;1.20;;;;;;;;;;5017248;28;20037;-78
2023/07/06 13:30:43;;;;;;;3.15;1.50;;;;;;;;;;4999336;28;20080;-80
2023/07/06 13:33:09;;;;;;;3.45;1.40;;;;;;;;;;4999875;28;20033;-79
2023/07/06 13:35:36;;;;;;;2.80;1.30;;;;;;;;;;5017651;28;20026;-79
2023/07/06 13:38:04;;;;;;;4.00;1.38;;;;;;;;;;5000437;28;20026;-79
2023/07/06 13:40:30;;;;;;;4.78;1.30;;;;;;;;;;5018355;28;20054;-80
2023/07/06 13:42:59;;;;;;;3.17;1.20;;;;;;;;;;5000262;28;20109;-79
2023/07/06 13:45:29;;;;;;;3.08;1.42;;;;;;;;;;5017353;28;20026;-79
2023/07/06 13:47:56;;;;;;;2.13;1.25;;;;;;;;;;5018096;28;20397;-79
2023/07/06 13:50:24;;;;;;;2.97;1.33;;;;;;;;;;5001452;28;20029;-80
2023/07/06 13:52:50;;;;;;;2.05;1.23;;;;;;;;;;5018691;28;20041;-79
2023/07/06 13:55:24;;;;;;;4.55;1.20;;;;;;;;;;5018185;28;20050;-78
2023/07/06 13:57:50;;;;;;;2.63;1.20;;;;;;;;;;5017934;28;20052;-79
2023/07/06 14:00:16;;;;;;;3.03;1.35;;;;;;;;;;5018287;28;20018;-79
2023/07/06 14:02:47;;;;;;;3.80;1.30;;;;;;;;;;5000315;28;20049;-79
2023/07/06 14:05:15;;;;;;;4.30;1.42;;;;;;;;;;5017727;28;20037;-79
2023/07/06 14:07:40;;;;;;;2.58;1.40;;;;;;;;;;5017382;28;20029;-79
2023/07/06 14:10:07;;;;;;;2.47;1.30;;;;;;;;;;5017244;28;20026;-79
2023/07/06 14:12:32;;;;;;;3.10;1.30;;;;;;;;;;5017464;28;20034;-78
2023/07/06 14:14:58;;;;;;;2.88;1.38;;;;;;;;;;4999271;28;20429;-79
2023/07/06 14:17:24;;;;;;;2.88;1.30;;;;;;;;;;5017339;28;20559;-79
2023/07/06 14:19:51;;;;;;;4.40;1.37;;;;;;;;;;5000353;28;20451;-80
2023/07/06 14:22:17;;;;;;;2.00;1.25;;;;;;;;;;5018189;28;20309;-78
2023/07/06 14:24:43;;;;;;;4.82;1.40;;;;;;;;;;5017406;28;20033;-79
2023/07/06 14:27:10;;;;;;;3.08;1.38;;;;;;;;;;5016548;28;20034;-77
2023/07/06 14:29:36;;;;;;;3.83;1.50;;;;;;;;;;5016440;28;20037;-77
2023/07/06 14:32:01;;;;;;;3.93;1.33;;;;;;;;;;5017088;28;20504;-79
2023/07/06 14:34:26;;;;;;;2.15;1.35;;;;;;;;;;5017191;28;20614;-78
2023/07/06 14:36:51;;;;;;;2.40;1.30;;;;;;;;;;5017580;28;20041;-78
2023/07/06 14:39:19;;;;;;;2.77;1.50;;;;;;;;;;4999092;28;20026;-79
2023/07/06 14:41:45;;;;;;;3.88;1.60;;;;;;;;;;5018057;28;20287;-78
2023/07/06 14:44:11;;;;;;;3.65;1.60;;;;;;;;;;5019256;28;20056;-79
2023/07/06 14:46:36;;;;;;;1.83;1.35;;;;;;;;;;5000301;28;20563;-79
2023/07/06 14:49:02;;;;;;;3.55;1.30;;;;;;;;;;5019443;28;20030;-78
2023/07/06 14:51:27;;;;;;;5.47;1.60;;;;;;;;;;5002975;28;20018;-78
2023/07/06 14:53:52;;;;;;;3.53;1.60;;;;;;;;;;5018512;28;20114;-78
2023/07/06 14:56:18;;;;;;;3.53;1.60;;;;;;;;;;5019729;28;20259;-79
2023/07/06 14:58:48;;;;;;;2.15;1.30;;;;;;;;;;5018529;28;20263;-78
2023/07/06 15:01:14;;;;;;;3.80;1.35;;;;;;;;;;5000878;28;20044;-78
2023/07/06 15:03:39;;;;;;;3.20;1.47;;;;;;;;;;5018090;28;20396;-80